sensor_id;sensor_type;location;lat;lon;timestamp;P1;durP1;ratioP1;P2;durP2;ratioP2
14883;SDS011;7534;50.762;7.000;2023-12-22T03:03:13;12.93;;;3.77;;
14883;SDS011;7534;50.762;7.000;2023-12-22T03:05:40;11.33;;;2.77;;
14883;SDS011;7534;50.762;7.000;2023-12-22T03:08:16;8.27;;;2.77;;
14883;SDS011;7534;50.762;7.000;2023-12-22T03:13:46;11.77;;;2.70;;
14883;SDS011;7534;50.762;7.000;2023-12-22T03:16:12;7.83;;;2.40;;
14883;SDS011;7534;50.762;7.000;2023-12-22T03:18:52;11.43;;;2.93;;
14883;SDS011;7534;50.762;7.000;2023-12-22T03:21:41;7.97;;;2.63;;
14883;SDS011;7534;50.762;7.000;2023-12-22T03:24:11;8.50;;;3.10;;
14883;SDS011;7534;50.762;7.000;2023-12-22T03:29:32;10.47;;;3.00;;
14883;SDS011;7534;50.762;7.000;2023-12-22T03:31:58;14.20;;;3.83;;
14883;SDS011;7534;50.762;7.000;2023-12-22T03:34:26;7.33;;;2.90;;
14883;SDS011;7534;50.762;7.000;2023-12-22T03:36:58;10.17;;;3.20;;
14883;SDS011;7534;50.762;7.000;2023-12-22T03:39:31;12.00;;;2.97;;
14883;SDS011;7534;50.762;7.000;2023-12-22T03:42:00;9.00;;;2.90;;
14883;SDS011;7534;50.762;7.000;2023-12-22T03:44:29;11.93;;;3.00;;
14883;SDS011;7534;50.762;7.000;2023-12-22T03:46:57;9.20;;;3.23;;
14883;SDS011;7534;50.762;7.000;2023-12-22T03:49:23;12.97;;;2.93;;
14883;SDS011;7534;50.762;7.000;2023-12-22T03:51:54;11.57;;;3.30;;
14883;SDS011;7534;50.762;7.000;2023-12-22T03:54:28;8.73;;;2.67;;
14883;SDS011;7534;50.762;7.000;2023-12-22T03:57:04;6.83;;;3.10;;
14883;SDS011;7534;50.762;7.000;2023-12-22T03:59:44;9.10;;;2.70;;
14883;SDS011;7534;50.762;7.000;2023-12-22T04:02:15;9.50;;;2.37;;
14883;SDS011;7534;50.762;7.000;2023-12-22T04:04:45;9.93;;;3.07;;
14883;SDS011;7534;50.762;7.000;2023-12-22T04:07:12;10.87;;;3.00;;
14883;SDS011;7534;50.762;7.000;2023-12-22T04:10:12;8.80;;;2.70;;
14883;SDS011;7534;50.762;7.000;2023-12-22T04:12:58;10.07;;;2.80;;
14883;SDS011;7534;50.762;7.000;2023-12-22T04:15:24;8.23;;;2.13;;
14883;SDS011;7534;50.762;7.000;2023-12-22T04:17:59;9.57;;;2.47;;
14883;SDS011;7534;50.762;7.000;2023-12-22T04:20:29;7.30;;;2.10;;
14883;SDS011;7534;50.762;7.000;2023-12-22T04:23:17;7.10;;;2.33;;
14883;SDS011;7534;50.762;7.000;2023-12-22T04:25:48;7.40;;;2.17;;
14883;SDS011;7534;50.762;7.000;2023-12-22T04:28:20;5.10;;;1.80;;
14883;SDS011;7534;50.762;7.000;2023-12-22T04:30:58;6.37;;;2.27;;
14883;SDS011;7534;50.762;7.000;2023-12-22T04:33:24;6.93;;;2.30;;
14883;SDS011;7534;50.762;7.000;2023-12-22T04:36:04;9.60;;;2.47;;
14883;SDS011;7534;50.762;7.000;2023-12-22T04:38:51;8.33;;;2.23;;
14883;SDS011;7534;50.762;7.000;2023-12-22T04:42:01;5.93;;;2.30;;
14883;SDS011;7534;50.762;7.000;2023-12-22T04:44:45;6.53;;;2.20;;
14883;SDS011;7534;50.762;7.000;2023-12-22T04:47:14;10.77;;;2.47;;
14883;SDS011;7534;50.762;7.000;2023-12-22T04:49:46;7.70;;;2.23;;
14883;SDS011;7534;50.762;7.000;2023-12-22T04:52:21;10.37;;;2.60;;
14883;SDS011;7534;50.762;7.000;2023-12-22T04:54:47;10.50;;;2.87;;
14883;SDS011;7534;50.762;7.000;2023-12-22T04:57:21;8.60;;;2.67;;
14883;SDS011;7534;50.762;7.000;2023-12-22T05:00:08;7.07;;;2.80;;
14883;SDS011;7534;50.762;7.000;2023-12-22T05:03:14;11.03;;;2.87;;
14883;SDS011;7534;50.762;7.000;2023-12-22T05:05:46;12.23;;;2.73;;
14883;SDS011;7534;50.762;7.000;2023-12-22T05:08:12;13.80;;;3.20;;
14883;SDS011;7534;50.762;7.000;2023-12-22T05:10:41;10.47;;;3.00;;
14883;SDS011;7534;50.762;7.000;2023-12-22T05:13:16;9.43;;;3.40;;
14883;SDS011;7534;50.762;7.000;2023-12-22T05:15:43;14.33;;;3.20;;
14883;SDS011;7534;50.762;7.000;2023-12-22T05:18:12;10.20;;;2.87;;
14883;SDS011;7534;50.762;7.000;2023-12-22T05:20:47;7.77;;;3.03;;
14883;SDS011;7534;50.762;7.000;2023-12-22T05:23:20;10.23;;;2.90;;
14883;SDS011;7534;50.762;7.000;2023-12-22T05:25:48;9.23;;;3.47;;
14883;SDS011;7534;50.762;7.000;2023-12-22T05:28:14;10.30;;;3.00;;
14883;SDS011;7534;50.762;7.000;2023-12-22T05:30:45;7.17;;;2.57;;
14883;SDS011;7534;50.762;7.000;2023-12-22T05:33:14;9.97;;;3.27;;
14883;SDS011;7534;50.762;7.000;2023-12-22T05:35:43;8.80;;;2.97;;
14883;SDS011;7534;50.762;7.000;2023-12-22T05:38:09;9.27;;;3.10;;
14883;SDS011;7534;50.762;7.000;2023-12-22T05:40:38;9.73;;;2.80;;
14883;SDS011;7534;50.762;7.000;2023-12-22T05:43:06;10.27;;;2.80;;
14883;SDS011;7534;50.762;7.000;2023-12-22T05:45:35;10.07;;;3.53;;
14883;SDS011;7534;50.762;7.000;2023-12-22T05:48:01;10.33;;;3.07;;
14883;SDS011;7534;50.762;7.000;2023-12-22T05:50:31;11.47;;;3.20;;
14883;SDS011;7534;50.762;7.000;2023-12-22T05:55:51;11.43;;;3.57;;
14883;SDS011;7534;50.762;7.000;2023-12-22T05:58:17;11.53;;;2.67;;
14883;SDS011;7534;50.762;7.000;2023-12-22T06:00:46;10.53;;;2.90;;
14883;SDS011;7534;50.762;7.000;2023-12-22T06:03:15;10.60;;;2.90;;
14883;SDS011;7534;50.762;7.000;2023-12-22T06:05:41;12.17;;;3.47;;
14883;SDS011;7534;50.762;7.000;2023-12-22T06:08:06;10.27;;;3.33;;
14883;SDS011;7534;50.762;7.000;2023-12-22T06:10:36;10.70;;;3.17;;
14883;SDS011;7534;50.762;7.000;2023-12-22T06:13:05;10.53;;;3.13;;
14883;SDS011;7534;50.762;7.000;2023-12-22T06:15:33;8.87;;;2.90;;
14883;SDS011;7534;50.762;7.000;2023-12-22T06:18:05;10.53;;;3.27;;
14883;SDS011;7534;50.762;7.000;2023-12-22T06:20:31;9.70;;;3.27;;
14883;SDS011;7534;50.762;7.000;2023-12-22T06:22:57;10.40;;;3.00;;
14883;SDS011;7534;50.762;7.000;2023-12-22T06:25:22;11.03;;;2.90;;
14883;SDS011;7534;50.762;7.000;2023-12-22T06:27:48;10.23;;;3.30;;
14883;SDS011;7534;50.762;7.000;2023-12-22T06:30:17;8.23;;;2.70;;
14883;SDS011;7534;50.762;7.000;2023-12-22T06:32:53;13.20;;;3.43;;
14883;SDS011;7534;50.762;7.000;2023-12-22T06:35:18;12.73;;;3.90;;
14883;SDS011;7534;50.762;7.000;2023-12-22T06:37:49;9.30;;;3.17;;
14883;SDS011;7534;50.762;7.000;2023-12-22T06:40:15;9.20;;;3.10;;
14883;SDS011;7534;50.762;7.000;2023-12-22T06:42:48;10.63;;;3.17;;
14883;SDS011;7534;50.762;7.000;2023-12-22T06:45:19;7.40;;;2.63;;
14883;SDS011;7534;50.762;7.000;2023-12-22T06:47:46;7.40;;;2.67;;
14883;SDS011;7534;50.762;7.000;2023-12-22T06:50:13;6.47;;;2.60;;
14883;SDS011;7534;50.762;7.000;2023-12-22T06:52:40;8.37;;;2.77;;
14883;SDS011;7534;50.762;7.000;2023-12-22T06:55:09;7.10;;;2.50;;
14883;SDS011;7534;50.762;7.000;2023-12-22T06:57:38;7.87;;;2.30;;
14883;SDS011;7534;50.762;7.000;2023-12-22T07:00:04;9.50;;;2.97;;
14883;SDS011;7534;50.762;7.000;2023-12-22T07:02:36;7.00;;;2.40;;
14883;SDS011;7534;50.762;7.000;2023-12-22T07:05:49;10.53;;;2.60;;
14883;SDS011;7534;50.762;7.000;2023-12-22T07:08:04;7.83;;;2.37;;
14883;SDS011;7534;50.762;7.000;2023-12-22T07:10:33;7.10;;;2.40;;
14883;SDS011;7534;50.762;7.000;2023-12-22T07:12:59;10.87;;;3.10;;
14883;SDS011;7534;50.762;7.000;2023-12-22T07:15:26;6.87;;;2.37;;
14883;SDS011;7534;50.762;7.000;2023-12-22T07:17:55;7.87;;;2.60;;
14883;SDS011;7534;50.762;7.000;2023-12-22T07:20:23;7.13;;;2.57;;
14883;SDS011;7534;50.762;7.000;2023-12-22T07:22:50;6.90;;;2.53;;
14883;SDS011;7534;50.762;7.000;2023-12-22T07:25:20;7.17;;;2.63;;
14883;SDS011;7534;50.762;7.000;2023-12-22T07:27:53;7.07;;;2.33;;
14883;SDS011;7534;50.762;7.000;2023-12-22T07:30:20;6.97;;;2.60;;
14883;SDS011;7534;50.762;7.000;2023-12-22T07:32:48;9.73;;;3.90;;
14883;SDS011;7534;50.762;7.000;2023-12-22T07:35:20;8.13;;;2.63;;
14883;SDS011;7534;50.762;7.000;2023-12-22T07:37:48;8.97;;;3.10;;
14883;SDS011;7534;50.762;7.000;2023-12-22T07:40:17;14.13;;;3.40;;
14883;SDS011;7534;50.762;7.000;2023-12-22T07:42:48;15.87;;;3.83;;
14883;SDS011;7534;50.762;7.000;2023-12-22T07:45:19;11.97;;;3.63;;
14883;SDS011;7534;50.762;7.000;2023-12-22T07:47:49;10.23;;;4.03;;
14883;SDS011;7534;50.762;7.000;2023-12-22T07:50:28;14.73;;;4.27;;
14883;SDS011;7534;50.762;7.000;2023-12-22T07:52:57;15.77;;;4.10;;
14883;SDS011;7534;50.762;7.000;2023-12-22T07:55:24;15.50;;;5.00;;
14883;SDS011;7534;50.762;7.000;2023-12-22T07:57:50;16.67;;;4.70;;
14883;SDS011;7534;50.762;7.000;2023-12-22T08:00:57;20.03;;;4.97;;
14883;SDS011;7534;50.762;7.000;2023-12-22T08:03:35;20.10;;;4.77;;
14883;SDS011;7534;50.762;7.000;2023-12-22T08:06:10;18.23;;;4.83;;
14883;SDS011;7534;50.762;7.000;2023-12-22T08:08:41;18.27;;;4.93;;
14883;SDS011;7534;50.762;7.000;2023-12-22T08:11:12;16.77;;;5.17;;
14883;SDS011;7534;50.762;7.000;2023-12-22T08:13:59;17.73;;;5.27;;
14883;SDS011;7534;50.762;7.000;2023-12-22T08:16:29;18.30;;;4.70;;
14883;SDS011;7534;50.762;7.000;2023-12-22T08:19:13;16.23;;;4.50;;
14883;SDS011;7534;50.762;7.000;2023-12-22T08:21:54;19.33;;;5.53;;
14883;SDS011;7534;50.762;7.000;2023-12-22T08:27:18;15.37;;;4.33;;
14883;SDS011;7534;50.762;7.000;2023-12-22T08:32:56;16.90;;;4.57;;
14883;SDS011;7534;50.762;7.000;2023-12-22T08:35:27;14.23;;;4.03;;
14883;SDS011;7534;50.762;7.000;2023-12-22T08:37:59;16.50;;;4.27;;
14883;SDS011;7534;50.762;7.000;2023-12-22T08:40:25;13.20;;;4.57;;
14883;SDS011;7534;50.762;7.000;2023-12-22T08:42:51;12.03;;;3.53;;
14883;SDS011;7534;50.762;7.000;2023-12-22T08:45:24;13.30;;;3.83;;
14883;SDS011;7534;50.762;7.000;2023-12-22T08:47:59;14.63;;;3.97;;
14883;SDS011;7534;50.762;7.000;2023-12-22T08:50:27;12.87;;;4.00;;
14883;SDS011;7534;50.762;7.000;2023-12-22T08:53:00;14.90;;;4.60;;
14883;SDS011;7534;50.762;7.000;2023-12-22T08:55:26;14.90;;;4.40;;
14883;SDS011;7534;50.762;7.000;2023-12-22T08:57:52;15.23;;;3.93;;
14883;SDS011;7534;50.762;7.000;2023-12-22T09:02:58;12.33;;;4.37;;
14883;SDS011;7534;50.762;7.000;2023-12-22T09:05:24;12.20;;;4.13;;
14883;SDS011;7534;50.762;7.000;2023-12-22T09:07:50;11.17;;;4.03;;
14883;SDS011;7534;50.762;7.000;2023-12-22T09:10:16;12.67;;;4.03;;
14883;SDS011;7534;50.762;7.000;2023-12-22T09:12:41;12.87;;;4.03;;
14883;SDS011;7534;50.762;7.000;2023-12-22T09:15:08;12.33;;;3.93;;
14883;SDS011;7534;50.762;7.000;2023-12-22T09:17:36;10.53;;;3.70;;
14883;SDS011;7534;50.762;7.000;2023-12-22T09:20:06;13.17;;;4.10;;
14883;SDS011;7534;50.762;7.000;2023-12-22T09:22:36;16.33;;;5.03;;
14883;SDS011;7534;50.762;7.000;2023-12-22T09:25:02;13.33;;;4.73;;
14883;SDS011;7534;50.762;7.000;2023-12-22T09:27:34;10.23;;;3.70;;
14883;SDS011;7534;50.762;7.000;2023-12-22T09:30:03;12.87;;;3.70;;
14883;SDS011;7534;50.762;7.000;2023-12-22T09:32:32;15.67;;;5.00;;
14883;SDS011;7534;50.762;7.000;2023-12-22T09:34:59;12.98;;;4.47;;
14883;SDS011;7534;50.762;7.000;2023-12-22T09:37:26;14.17;;;3.90;;
14883;SDS011;7534;50.762;7.000;2023-12-22T09:39:52;9.23;;;3.13;;
14883;SDS011;7534;50.762;7.000;2023-12-22T09:42:21;11.85;;;3.80;;
14883;SDS011;7534;50.762;7.000;2023-12-22T09:44:50;11.20;;;4.30;;
14883;SDS011;7534;50.762;7.000;2023-12-22T09:47:19;9.33;;;3.57;;
14883;SDS011;7534;50.762;7.000;2023-12-22T09:49:46;6.27;;;2.70;;
14883;SDS011;7534;50.762;7.000;2023-12-22T09:52:15;8.17;;;3.03;;
14883;SDS011;7534;50.762;7.000;2023-12-22T09:54:42;6.10;;;3.10;;
14883;SDS011;7534;50.762;7.000;2023-12-22T09:57:10;5.90;;;2.47;;
14883;SDS011;7534;50.762;7.000;2023-12-22T09:59:38;7.10;;;2.73;;
14883;SDS011;7534;50.762;7.000;2023-12-22T10:02:04;8.37;;;2.60;;
14883;SDS011;7534;50.762;7.000;2023-12-22T10:04:32;7.00;;;2.60;;
14883;SDS011;7534;50.762;7.000;2023-12-22T10:06:58;5.87;;;2.60;;
14883;SDS011;7534;50.762;7.000;2023-12-22T10:09:26;6.43;;;2.53;;
14883;SDS011;7534;50.762;7.000;2023-12-22T10:11:53;6.83;;;2.33;;
14883;SDS011;7534;50.762;7.000;2023-12-22T10:14:22;4.00;;;1.90;;
14883;SDS011;7534;50.762;7.000;2023-12-22T10:16:49;3.97;;;2.10;;
14883;SDS011;7534;50.762;7.000;2023-12-22T10:19:16;5.30;;;2.13;;
14883;SDS011;7534;50.762;7.000;2023-12-22T10:21:42;3.90;;;1.77;;
14883;SDS011;7534;50.762;7.000;2023-12-22T10:24:26;4.23;;;1.77;;
14883;SDS011;7534;50.762;7.000;2023-12-22T10:27:12;3.17;;;1.95;;
14883;SDS011;7534;50.762;7.000;2023-12-22T10:29:42;4.18;;;2.00;;
14883;SDS011;7534;50.762;7.000;2023-12-22T10:32:09;4.37;;;1.90;;
14883;SDS011;7534;50.762;7.000;2023-12-22T10:34:35;2.77;;;1.60;;
14883;SDS011;7534;50.762;7.000;2023-12-22T10:37:05;4.20;;;2.27;;
14883;SDS011;7534;50.762;7.000;2023-12-22T10:39:38;3.30;;;2.00;;
14883;SDS011;7534;50.762;7.000;2023-12-22T10:42:05;3.37;;;1.70;;
14883;SDS011;7534;50.762;7.000;2023-12-22T10:44:33;3.73;;;1.77;;
14883;SDS011;7534;50.762;7.000;2023-12-22T10:46:59;3.87;;;1.80;;
14883;SDS011;7534;50.762;7.000;2023-12-22T10:49:33;4.03;;;1.90;;
14883;SDS011;7534;50.762;7.000;2023-12-22T10:52:28;6.37;;;2.10;;
14883;SDS011;7534;50.762;7.000;2023-12-22T10:54:56;2.97;;;1.90;;
14883;SDS011;7534;50.762;7.000;2023-12-22T11:00:34;4.30;;;1.80;;
14883;SDS011;7534;50.762;7.000;2023-12-22T11:06:12;1.93;;;1.50;;
14883;SDS011;7534;50.762;7.000;2023-12-22T11:08:41;1.60;;;1.50;;
14883;SDS011;7534;50.762;7.000;2023-12-22T11:11:33;2.43;;;1.77;;
14883;SDS011;7534;50.762;7.000;2023-12-22T11:14:00;2.57;;;1.70;;
14883;SDS011;7534;50.762;7.000;2023-12-22T11:16:27;4.43;;;1.83;;
14883;SDS011;7534;50.762;7.000;2023-12-22T11:19:00;2.70;;;1.90;;
14883;SDS011;7534;50.762;7.000;2023-12-22T11:21:28;4.17;;;2.47;;
14883;SDS011;7534;50.762;7.000;2023-12-22T11:24:00;3.10;;;2.30;;
14883;SDS011;7534;50.762;7.000;2023-12-22T11:26:27;3.70;;;1.90;;
14883;SDS011;7534;50.762;7.000;2023-12-22T11:29:03;3.37;;;2.33;;
14883;SDS011;7534;50.762;7.000;2023-12-22T11:31:34;4.00;;;2.03;;
14883;SDS011;7534;50.762;7.000;2023-12-22T11:34:03;2.17;;;1.97;;
14883;SDS011;7534;50.762;7.000;2023-12-22T11:36:40;2.60;;;1.93;;
14883;SDS011;7534;50.762;7.000;2023-12-22T11:39:41;3.07;;;1.90;;
14883;SDS011;7534;50.762;7.000;2023-12-22T11:44:32;2.90;;;1.93;;
14883;SDS011;7534;50.762;7.000;2023-12-22T11:47:08;3.40;;;2.00;;
14883;SDS011;7534;50.762;7.000;2023-12-22T11:49:48;4.47;;;2.00;;
14883;SDS011;7534;50.762;7.000;2023-12-22T11:52:26;2.77;;;1.90;;
14883;SDS011;7534;50.762;7.000;2023-12-22T11:54:59;3.40;;;1.73;;
14883;SDS011;7534;50.762;7.000;2023-12-22T11:57:30;2.63;;;1.77;;
14883;SDS011;7534;50.762;7.000;2023-12-22T12:00:05;3.50;;;2.10;;
14883;SDS011;7534;50.762;7.000;2023-12-22T12:02:54;3.13;;;1.83;;
14883;SDS011;7534;50.762;7.000;2023-12-22T12:05:24;3.20;;;1.43;;
14883;SDS011;7534;50.762;7.000;2023-12-22T12:08:02;2.43;;;1.60;;
14883;SDS011;7534;50.762;7.000;2023-12-22T12:13:04;1.27;;;1.20;;
14883;SDS011;7534;50.762;7.000;2023-12-22T12:15:36;2.67;;;1.50;;
14883;SDS011;7534;50.762;7.000;2023-12-22T12:18:05;2.10;;;1.43;;
14883;SDS011;7534;50.762;7.000;2023-12-22T12:20:33;2.20;;;1.40;;
14883;SDS011;7534;50.762;7.000;2023-12-22T12:23:03;3.10;;;1.40;;
14883;SDS011;7534;50.762;7.000;2023-12-22T12:25:31;1.57;;;1.47;;
14883;SDS011;7534;50.762;7.000;2023-12-22T12:28:05;1.70;;;1.30;;
14883;SDS011;7534;50.762;7.000;2023-12-22T12:30:32;1.80;;;1.53;;
14883;SDS011;7534;50.762;7.000;2023-12-22T12:32:59;2.10;;;1.73;;
14883;SDS011;7534;50.762;7.000;2023-12-22T12:36:03;2.03;;;1.50;;
14883;SDS011;7534;50.762;7.000;2023-12-22T12:41:42;2.10;;;1.50;;
14883;SDS011;7534;50.762;7.000;2023-12-22T12:44:09;3.13;;;1.90;;
14883;SDS011;7534;50.762;7.000;2023-12-22T12:46:51;3.27;;;1.60;;
14883;SDS011;7534;50.762;7.000;2023-12-22T12:49:25;4.30;;;1.90;;
14883;SDS011;7534;50.762;7.000;2023-12-22T12:51:56;3.63;;;1.70;;
14883;SDS011;7534;50.762;7.000;2023-12-22T12:54:24;3.85;;;1.70;;
14883;SDS011;7534;50.762;7.000;2023-12-22T12:56:56;4.13;;;1.90;;
14883;SDS011;7534;50.762;7.000;2023-12-22T12:59:30;2.27;;;1.60;;
14883;SDS011;7534;50.762;7.000;2023-12-22T13:02:09;3.63;;;1.63;;
14883;SDS011;7534;50.762;7.000;2023-12-22T13:04:42;2.70;;;1.63;;
14883;SDS011;7534;50.762;7.000;2023-12-22T13:07:35;3.10;;;1.70;;
14883;SDS011;7534;50.762;7.000;2023-12-22T13:10:02;3.70;;;1.60;;
14883;SDS011;7534;50.762;7.000;2023-12-22T13:16:13;3.77;;;2.00;;
14883;SDS011;7534;50.762;7.000;2023-12-22T13:18:58;3.40;;;1.93;;
14883;SDS011;7534;50.762;7.000;2023-12-22T13:21:25;3.00;;;2.00;;
14883;SDS011;7534;50.762;7.000;2023-12-22T13:26:58;4.37;;;2.30;;
14883;SDS011;7534;50.762;7.000;2023-12-22T13:29:44;3.20;;;2.27;;
14883;SDS011;7534;50.762;7.000;2023-12-22T13:32:19;3.20;;;2.30;;
14883;SDS011;7534;50.762;7.000;2023-12-22T13:34:52;3.60;;;2.30;;
14883;SDS011;7534;50.762;7.000;2023-12-22T13:37:20;4.40;;;2.17;;
14883;SDS011;7534;50.762;7.000;2023-12-22T13:39:48;2.27;;;2.07;;
14883;SDS011;7534;50.762;7.000;2023-12-22T13:42:16;3.33;;;1.80;;
14883;SDS011;7534;50.762;7.000;2023-12-22T13:44:45;4.87;;;2.17;;
14883;SDS011;7534;50.762;7.000;2023-12-22T13:47:18;2.60;;;2.10;;
14883;SDS011;7534;50.762;7.000;2023-12-22T13:49:47;3.53;;;2.13;;
14883;SDS011;7534;50.762;7.000;2023-12-22T13:52:26;4.13;;;2.10;;
14883;SDS011;7534;50.762;7.000;2023-12-22T13:55:02;4.57;;;2.07;;
14883;SDS011;7534;50.762;7.000;2023-12-22T13:57:36;3.50;;;2.10;;
14883;SDS011;7534;50.762;7.000;2023-12-22T14:02:50;3.10;;;1.90;;
14883;SDS011;7534;50.762;7.000;2023-12-22T14:05:43;4.13;;;2.10;;
14883;SDS011;7534;50.762;7.000;2023-12-22T14:08:17;3.10;;;2.00;;
14883;SDS011;7534;50.762;7.000;2023-12-22T14:10:49;2.87;;;1.90;;
14883;SDS011;7534;50.762;7.000;2023-12-22T14:13:16;2.93;;;2.10;;
14883;SDS011;7534;50.762;7.000;2023-12-22T14:15:49;4.00;;;2.50;;
14883;SDS011;7534;50.762;7.000;2023-12-22T14:18:18;2.93;;;1.70;;
14883;SDS011;7534;50.762;7.000;2023-12-22T14:20:46;4.70;;;2.20;;
14883;SDS011;7534;50.762;7.000;2023-12-22T14:23:12;3.37;;;2.10;;
14883;SDS011;7534;50.762;7.000;2023-12-22T14:25:42;4.10;;;1.95;;
14883;SDS011;7534;50.762;7.000;2023-12-22T14:28:11;5.60;;;2.20;;
14883;SDS011;7534;50.762;7.000;2023-12-22T14:30:39;5.40;;;2.00;;
14883;SDS011;7534;50.762;7.000;2023-12-22T14:33:13;3.07;;;1.87;;
14883;SDS011;7534;50.762;7.000;2023-12-22T14:38:27;4.43;;;2.13;;
14883;SDS011;7534;50.762;7.000;2023-12-22T14:44:16;6.07;;;1.90;;
14883;SDS011;7534;50.762;7.000;2023-12-22T14:49:41;3.40;;;1.47;;
14883;SDS011;7534;50.762;7.000;2023-12-22T14:52:07;3.97;;;1.50;;
14883;SDS011;7534;50.762;7.000;2023-12-22T14:54:52;3.50;;;1.60;;
14883;SDS011;7534;50.762;7.000;2023-12-22T14:57:21;3.60;;;2.43;;
14883;SDS011;7534;50.762;7.000;2023-12-22T14:59:52;3.60;;;1.70;;
14883;SDS011;7534;50.762;7.000;2023-12-22T15:02:21;4.10;;;2.03;;
14883;SDS011;7534;50.762;7.000;2023-12-22T15:04:52;2.40;;;1.80;;
14883;SDS011;7534;50.762;7.000;2023-12-22T15:07:18;3.27;;;1.80;;
14883;SDS011;7534;50.762;7.000;2023-12-22T15:09:46;2.97;;;1.67;;
14883;SDS011;7534;50.762;7.000;2023-12-22T15:12:13;2.07;;;1.50;;
14883;SDS011;7534;50.762;7.000;2023-12-22T15:14:47;3.20;;;1.67;;
14883;SDS011;7534;50.762;7.000;2023-12-22T15:17:20;2.53;;;1.70;;
14883;SDS011;7534;50.762;7.000;2023-12-22T15:19:48;2.83;;;1.90;;
14883;SDS011;7534;50.762;7.000;2023-12-22T15:22:15;3.27;;;2.10;;
14883;SDS011;7534;50.762;7.000;2023-12-22T15:24:45;3.77;;;2.30;;
14883;SDS011;7534;50.762;7.000;2023-12-22T15:27:21;6.30;;;2.30;;
14883;SDS011;7534;50.762;7.000;2023-12-22T15:29:51;4.87;;;2.33;;
14883;SDS011;7534;50.762;7.000;2023-12-22T15:32:23;5.33;;;2.53;;
14883;SDS011;7534;50.762;7.000;2023-12-22T15:34:52;4.80;;;2.80;;
14883;SDS011;7534;50.762;7.000;2023-12-22T15:37:20;4.33;;;2.53;;
14883;SDS011;7534;50.762;7.000;2023-12-22T15:39:53;4.63;;;2.80;;
14883;SDS011;7534;50.762;7.000;2023-12-22T15:42:22;5.97;;;3.20;;
14883;SDS011;7534;50.762;7.000;2023-12-22T15:44:52;3.93;;;2.47;;
14883;SDS011;7534;50.762;7.000;2023-12-22T15:47:28;4.90;;;2.47;;
14883;SDS011;7534;50.762;7.000;2023-12-22T15:49:55;4.73;;;2.47;;
14883;SDS011;7534;50.762;7.000;2023-12-22T15:52:24;2.90;;;2.53;;
14883;SDS011;7534;50.762;7.000;2023-12-22T15:54:56;5.67;;;2.90;;
14883;SDS011;7534;50.762;7.000;2023-12-22T15:57:29;5.47;;;2.40;;
14883;SDS011;7534;50.762;7.000;2023-12-22T15:59:59;5.63;;;2.50;;
14883;SDS011;7534;50.762;7.000;2023-12-22T16:02:25;3.17;;;2.37;;
14883;SDS011;7534;50.762;7.000;2023-12-22T16:05:04;5.60;;;2.50;;
14883;SDS011;7534;50.762;7.000;2023-12-22T16:10:24;5.37;;;2.87;;
14883;SDS011;7534;50.762;7.000;2023-12-22T16:15:32;4.43;;;2.10;;
14883;SDS011;7534;50.762;7.000;2023-12-22T16:18:01;6.50;;;2.37;;
14883;SDS011;7534;50.762;7.000;2023-12-22T16:20:28;6.13;;;2.37;;
14883;SDS011;7534;50.762;7.000;2023-12-22T16:22:54;7.60;;;3.63;;
14883;SDS011;7534;50.762;7.000;2023-12-22T16:25:27;7.57;;;2.70;;
14883;SDS011;7534;50.762;7.000;2023-12-22T16:32:13;4.80;;;2.40;;
14883;SDS011;7534;50.762;7.000;2023-12-22T16:34:57;4.50;;;2.57;;
14883;SDS011;7534;50.762;7.000;2023-12-22T16:37:29;5.33;;;2.80;;
14883;SDS011;7534;50.762;7.000;2023-12-22T16:40:00;4.80;;;2.80;;
14883;SDS011;7534;50.762;7.000;2023-12-22T16:42:33;5.17;;;2.33;;
14883;SDS011;7534;50.762;7.000;2023-12-22T16:45:02;4.17;;;2.40;;
14883;SDS011;7534;50.762;7.000;2023-12-22T16:47:36;6.43;;;2.90;;
14883;SDS011;7534;50.762;7.000;2023-12-22T16:50:03;5.43;;;2.73;;
14883;SDS011;7534;50.762;7.000;2023-12-22T16:52:40;6.13;;;2.83;;
14883;SDS011;7534;50.762;7.000;2023-12-22T16:58:12;4.60;;;3.10;;
14883;SDS011;7534;50.762;7.000;2023-12-22T17:00:46;3.43;;;2.43;;
14883;SDS011;7534;50.762;7.000;2023-12-22T17:03:12;5.20;;;3.07;;
14883;SDS011;7534;50.762;7.000;2023-12-22T17:05:45;4.27;;;2.20;;
14883;SDS011;7534;50.762;7.000;2023-12-22T17:08:12;5.33;;;2.70;;
14883;SDS011;7534;50.762;7.000;2023-12-22T17:10:40;5.07;;;2.63;;
14883;SDS011;7534;50.762;7.000;2023-12-22T17:13:13;5.33;;;2.50;;
14883;SDS011;7534;50.762;7.000;2023-12-22T17:15:38;4.70;;;2.50;;
14883;SDS011;7534;50.762;7.000;2023-12-22T17:18:19;6.00;;;2.67;;
14883;SDS011;7534;50.762;7.000;2023-12-22T17:20:48;6.13;;;2.80;;
14883;SDS011;7534;50.762;7.000;2023-12-22T17:23:39;7.50;;;3.07;;
14883;SDS011;7534;50.762;7.000;2023-12-22T17:26:05;6.90;;;3.10;;
14883;SDS011;7534;50.762;7.000;2023-12-22T17:28:37;7.13;;;3.40;;
14883;SDS011;7534;50.762;7.000;2023-12-22T17:31:06;5.17;;;3.20;;
14883;SDS011;7534;50.762;7.000;2023-12-22T17:33:32;5.03;;;2.57;;
14883;SDS011;7534;50.762;7.000;2023-12-22T17:36:00;6.37;;;3.10;;
14883;SDS011;7534;50.762;7.000;2023-12-22T17:38:26;7.33;;;2.80;;
14883;SDS011;7534;50.762;7.000;2023-12-22T17:40:55;7.03;;;3.07;;
14883;SDS011;7534;50.762;7.000;2023-12-22T17:43:22;6.20;;;2.70;;
14883;SDS011;7534;50.762;7.000;2023-12-22T17:45:49;5.17;;;2.80;;
14883;SDS011;7534;50.762;7.000;2023-12-22T17:48:14;5.87;;;2.70;;
14883;SDS011;7534;50.762;7.000;2023-12-22T17:50:40;4.03;;;2.30;;
14883;SDS011;7534;50.762;7.000;2023-12-22T17:53:13;6.00;;;2.60;;
14883;SDS011;7534;50.762;7.000;2023-12-22T17:55:45;4.50;;;2.47;;
14883;SDS011;7534;50.762;7.000;2023-12-22T17:58:11;6.83;;;3.03;;
14883;SDS011;7534;50.762;7.000;2023-12-22T18:00:40;6.70;;;2.37;;
14883;SDS011;7534;50.762;7.000;2023-12-22T18:03:13;7.27;;;2.60;;
14883;SDS011;7534;50.762;7.000;2023-12-22T18:05:51;4.90;;;2.37;;
14883;SDS011;7534;50.762;7.000;2023-12-22T18:08:17;6.63;;;2.73;;
14883;SDS011;7534;50.762;7.000;2023-12-22T18:10:50;5.17;;;2.50;;
14883;SDS011;7534;50.762;7.000;2023-12-22T18:13:17;4.83;;;2.20;;
14883;SDS011;7534;50.762;7.000;2023-12-22T18:16:03;5.20;;;2.10;;
14883;SDS011;7534;50.762;7.000;2023-12-22T18:18:32;4.60;;;2.30;;
14883;SDS011;7534;50.762;7.000;2023-12-22T18:21:04;5.63;;;2.50;;
14883;SDS011;7534;50.762;7.000;2023-12-22T18:23:30;4.73;;;2.00;;
14883;SDS011;7534;50.762;7.000;2023-12-22T18:26:10;6.60;;;2.93;;
14883;SDS011;7534;50.762;7.000;2023-12-22T18:28:42;5.63;;;2.27;;
14883;SDS011;7534;50.762;7.000;2023-12-22T18:31:10;7.13;;;2.30;;
14883;SDS011;7534;50.762;7.000;2023-12-22T18:33:41;4.30;;;2.03;;
14883;SDS011;7534;50.762;7.000;2023-12-22T18:36:47;7.13;;;2.60;;
14883;SDS011;7534;50.762;7.000;2023-12-22T18:39:16;5.10;;;2.53;;
14883;SDS011;7534;50.762;7.000;2023-12-22T18:41:48;5.53;;;2.40;;
14883;SDS011;7534;50.762;7.000;2023-12-22T18:44:20;5.83;;;2.33;;
14883;SDS011;7534;50.762;7.000;2023-12-22T18:46:45;4.50;;;2.30;;
14883;SDS011;7534;50.762;7.000;2023-12-22T18:49:11;3.77;;;2.40;;
14883;SDS011;7534;50.762;7.000;2023-12-22T18:51:41;7.47;;;2.20;;
14883;SDS011;7534;50.762;7.000;2023-12-22T18:54:07;6.67;;;3.00;;
14883;SDS011;7534;50.762;7.000;2023-12-22T18:56:50;8.17;;;2.47;;
14883;SDS011;7534;50.762;7.000;2023-12-22T19:02:36;5.93;;;2.20;;
14883;SDS011;7534;50.762;7.000;2023-12-22T19:05:06;6.63;;;2.13;;
14883;SDS011;7534;50.762;7.000;2023-12-22T19:07:35;4.83;;;2.27;;
14883;SDS011;7534;50.762;7.000;2023-12-22T19:10:18;9.30;;;2.40;;
14883;SDS011;7534;50.762;7.000;2023-12-22T19:12:53;3.20;;;1.80;;
14883;SDS011;7534;50.762;7.000;2023-12-22T19:15:24;5.93;;;2.20;;
14883;SDS011;7534;50.762;7.000;2023-12-22T19:18:20;10.00;;;3.53;;
14883;SDS011;7534;50.762;7.000;2023-12-22T19:21:04;4.97;;;2.30;;
14883;SDS011;7534;50.762;7.000;2023-12-22T19:24:41;5.97;;;2.50;;
14883;SDS011;7534;50.762;7.000;2023-12-22T19:27:16;4.97;;;2.10;;
14883;SDS011;7534;50.762;7.000;2023-12-22T19:29:42;4.27;;;2.30;;
14883;SDS011;7534;50.762;7.000;2023-12-22T19:32:08;5.00;;;2.20;;
14883;SDS011;7534;50.762;7.000;2023-12-22T19:34:37;5.33;;;2.10;;